createdAt,value
2022-12-11T00:10:10.136Z,-1.45
2022-12-11T00:40:28.347Z,-1.6
2022-12-11T01:10:45.711Z,-1.45
2022-12-11T01:41:03.718Z,-1.35
2022-12-11T02:11:21.054Z,-1.35
2022-12-11T02:41:37.738Z,-1.6
2022-12-11T03:11:55.995Z,-1.65
2022-12-11T03:42:14.121Z,-1.6
2022-12-11T04:12:31.524Z,-1.5
2022-12-11T04:42:50.125Z,-1.45
2022-12-11T05:13:06.368Z,-1.3
2022-12-11T05:43:24.785Z,-1.55
2022-12-11T06:13:39.743Z,-1.4
2022-12-11T06:43:58.149Z,-1.5
2022-12-11T07:14:16.903Z,-0.9
2022-12-11T07:44:33.705Z,-1.2
2022-12-11T08:14:52.599Z,-0.85
2022-12-11T08:45:11.188Z,-0.75
2022-12-11T09:15:31.375Z,0
2022-12-11T09:45:51.906Z,0.3
2022-12-11T10:16:11.440Z,0.15
2022-12-11T11:16:50.667Z,0.3
2022-12-11T11:47:09.231Z,0.55
2022-12-11T12:17:25.846Z,0.4
2022-12-11T12:47:41.830Z,0.3
2022-12-11T13:17:59.958Z,0.15
2022-12-11T13:48:16.990Z,0.05
2022-12-11T14:18:35.055Z,0.05
2022-12-11T14:48:56.103Z,0.05
2022-12-11T15:19:13.471Z,1.55
2022-12-11T15:49:32.357Z,0.25
2022-12-11T16:19:49.295Z,0.1
2022-12-11T16:50:05.894Z,-0.25
2022-12-11T17:20:22.593Z,-0.25
2022-12-11T17:50:40.147Z,-0.25
2022-12-11T18:20:58.752Z,-0.2
2022-12-11T18:51:16.290Z,-0.2
2022-12-11T19:21:33.698Z,-0.2
2022-12-11T19:51:51.664Z,-0.15
2022-12-11T20:22:10.824Z,-0.05
2022-12-11T20:52:28.357Z,-0.15
2022-12-11T21:22:46.522Z,-0.2
2022-12-11T21:53:07.732Z,-0.15
2022-12-11T22:23:26.325Z,-0.15
2022-12-11T22:53:43.906Z,-0.25
2022-12-11T23:24:02.527Z,-0.3
2022-12-11T23:54:19.963Z,-0.2
